Time;durP1;ratioP1;P1;durP2;ratioP2;P2;SDS_P1;SDS_P2;PMS_P1;PMS_P2;Temp;Humidity;BMP_temperature;BMP_pressure;BME280_temperature;BME280_humidity;BME280_pressure;Samples;Min_cycle;Max_cycle;Signal;HPM_P1;HPM_P2
2023/02/20 00:02:00;;;;;;;6.40;2.50;;;7.20;99.90;;;;;;4998317;28;20458;-70
2023/02/20 00:04:27;;;;;;;5.10;2.20;;;7.20;99.90;;;;;;5005793;28;20554;-71
2023/02/20 00:06:54;;;;;;;3.80;2.43;;;7.10;99.90;;;;;;5001499;28;20495;-71
2023/02/20 00:09:21;;;;;;;2.13;1.83;;;7.10;99.90;;;;;;4994781;28;20560;-72
2023/02/20 00:11:48;;;;;;;4.10;2.73;;;7.10;99.90;;;;;;4997682;28;20998;-71
2023/02/20 00:14:15;;;;;;;4.67;3.20;;;7.10;99.90;;;;;;4998212;28;20763;-71
2023/02/20 00:16:46;;;;;;;5.80;3.47;;;7.10;99.90;;;;;;5001859;28;20562;-71
2023/02/20 00:19:13;;;;;;;4.73;3.10;;;7.00;99.90;;;;;;5001285;28;20670;-71
2023/02/20 00:21:45;;;;;;;3.63;2.10;;;7.10;99.90;;;;;;5000809;28;20442;-71
2023/02/20 00:24:12;;;;;;;4.87;2.50;;;7.00;99.90;;;;;;5000934;28;20452;-69
2023/02/20 00:26:46;;;;;;;4.53;2.30;;;7.00;99.90;;;;;;5001830;28;21049;-70
2023/02/20 00:29:15;;;;;;;4.53;2.70;;;6.90;99.90;;;;;;5019466;28;20456;-70
2023/02/20 00:31:43;;;;;;;2.90;2.33;;;7.00;99.90;;;;;;5016037;28;20464;-71
2023/02/20 00:34:10;;;;;;;5.07;3.03;;;7.00;99.90;;;;;;4996691;28;20443;-71
2023/02/20 00:36:37;;;;;;;4.40;3.37;;;6.90;99.90;;;;;;4977680;28;20448;-71
2023/02/20 00:39:04;;;;;;;4.70;3.13;;;7.00;99.90;;;;;;4994989;28;20437;-71
2023/02/20 00:41:31;;;;;;;5.30;2.87;;;7.00;99.90;;;;;;4997623;28;20437;-69
2023/02/20 00:43:58;;;;;;;4.50;2.83;;;7.00;99.90;;;;;;5004109;28;20847;-70
2023/02/20 00:46:26;;;;;;;4.23;3.83;;;7.00;99.90;;;;;;4999828;28;20490;-71
2023/02/20 00:48:54;;;;;;;7.53;3.83;;;6.90;99.90;;;;;;5005449;28;20843;-70
2023/02/20 00:51:21;;;;;;;6.80;4.13;;;6.90;99.90;;;;;;4997633;28;20477;-71
2023/02/20 00:53:48;;;;;;;6.07;4.30;;;6.90;99.90;;;;;;4996472;28;20540;-72
2023/02/20 00:56:15;;;;;;;5.20;3.20;;;7.00;99.90;;;;;;5003434;28;20481;-72
2023/02/20 00:58:42;;;;;;;3.20;2.33;;;7.00;99.90;;;;;;5005811;28;20847;-71
2023/02/20 01:01:09;;;;;;;8.37;4.53;;;6.90;99.90;;;;;;5000865;28;20458;-70
2023/02/20 01:03:36;;;;;;;10.33;3.23;;;6.90;99.90;;;;;;5008379;28;20489;-71
2023/02/20 01:06:04;;;;;;;7.50;4.13;;;6.90;99.90;;;;;;5002807;28;20888;-71
2023/02/20 01:08:31;;;;;;;7.93;3.60;;;7.00;99.90;;;;;;5003914;28;21020;-71
2023/02/20 01:10:58;;;;;;;7.23;5.40;;;7.00;99.90;;;;;;5002086;28;20465;-70
2023/02/20 01:13:25;;;;;;;10.43;4.93;;;6.90;99.90;;;;;;4996978;28;20461;-71
2023/02/20 01:15:52;;;;;;;7.93;4.60;;;7.00;99.90;;;;;;5003861;28;20499;-70
2023/02/20 01:18:20;;;;;;;8.67;3.87;;;7.10;99.90;;;;;;4998048;28;20477;-71
2023/02/20 01:20:46;;;;;;;5.77;3.07;;;7.10;99.90;;;;;;5002011;28;20463;-71
2023/02/20 01:23:15;;;;;;;6.60;3.07;;;7.00;99.90;;;;;;5000568;28;20489;-72
2023/02/20 01:25:42;;;;;;;10.13;4.10;;;7.10;99.90;;;;;;5004267;28;20562;-71
2023/02/20 01:28:09;;;;;;;3.47;3.17;;;7.10;99.90;;;;;;5002975;28;20448;-72
2023/02/20 01:30:36;;;;;;;7.20;4.27;;;7.10;99.90;;;;;;4999732;28;20548;-72
2023/02/20 01:33:03;;;;;;;7.30;4.57;;;7.20;99.90;;;;;;5006802;28;20477;-72
2023/02/20 01:35:30;;;;;;;9.50;5.07;;;7.20;99.90;;;;;;5004213;28;20420;-70
2023/02/20 01:37:58;;;;;;;9.57;4.30;;;7.30;99.90;;;;;;4998266;28;20995;-69
2023/02/20 01:40:27;;;;;;;8.87;3.77;;;7.20;99.90;;;;;;5004982;28;20467;-69
2023/02/20 01:42:54;;;;;;;5.47;4.10;;;7.30;99.90;;;;;;5004879;28;20449;-70
2023/02/20 01:45:34;;;;;;;9.00;5.20;;;7.30;99.90;;;;;;5008640;28;20499;-69
2023/02/20 01:48:01;;;;;;;4.83;3.37;;;7.30;99.90;;;;;;4993183;28;20461;-70
2023/02/20 01:50:31;;;;;;;9.80;5.43;;;7.20;99.90;;;;;;4997956;28;20564;-71
2023/02/20 01:53:02;;;;;;;14.20;7.07;;;7.20;99.90;;;;;;4990882;28;21346;-70
2023/02/20 01:55:37;;;;;;;14.13;7.20;;;7.30;99.90;;;;;;5002873;28;20436;-70
2023/02/20 01:58:10;;;;;;;10.70;7.73;;;7.30;99.90;;;;;;5001980;28;20475;-70
2023/02/20 02:00:38;;;;;;;15.10;10.83;;;7.20;99.90;;;;;;5004226;28;20532;-69
2023/02/20 02:03:10;;;;;;;14.23;7.30;;;7.20;99.90;;;;;;5004850;28;20440;-70
2023/02/20 02:05:40;;;;;;;7.60;6.70;;;7.20;99.90;;;;;;4997024;28;20468;-71
2023/02/20 02:08:09;;;;;;;11.83;6.67;;;7.20;99.90;;;;;;4999782;28;20523;-70
2023/02/20 02:10:45;;;;;;;8.33;5.87;;;7.10;99.90;;;;;;4999972;28;21049;-71
2023/02/20 02:13:12;;;;;;;7.53;3.80;;;7.20;99.90;;;;;;4986499;28;20834;-71
2023/02/20 02:15:41;;;;;;;6.33;4.90;;;7.20;99.90;;;;;;5002348;28;20454;-71
2023/02/20 02:18:37;;;;;;;6.47;3.20;;;7.20;99.90;;;;;;4994515;28;20836;-71
2023/02/20 02:21:37;;;;;;;9.57;4.73;;;7.20;99.90;;;;;;4998704;28;20448;-71
2023/02/20 02:24:38;;;;;;;4.83;2.73;;;7.30;99.90;;;;;;5002207;28;20567;-71
2023/02/20 02:27:40;;;;;;;8.23;2.80;;;7.30;99.90;;;;;;4994192;28;20480;-71
2023/02/20 02:30:35;;;;;;;7.00;3.20;;;7.20;99.90;;;;;;5002823;28;20498;-71
2023/02/20 02:33:39;;;;;;;6.30;3.50;;;7.10;99.90;;;;;;4997009;28;20984;-70
2023/02/20 02:36:28;;;;;;;10.47;4.23;;;7.20;99.90;;;;;;4999785;28;20482;-69
2023/02/20 02:39:01;;;;;;;11.97;4.30;;;7.10;99.90;;;;;;4998363;28;20545;-71
2023/02/20 02:41:37;;;;;;;7.57;3.40;;;7.10;99.90;;;;;;5000257;28;20487;-71
2023/02/20 02:44:11;;;;;;;8.30;4.23;;;7.00;99.90;;;;;;4989152;28;21001;-71
2023/02/20 02:46:43;;;;;;;6.13;3.80;;;7.10;99.90;;;;;;4995324;28;20495;-71
2023/02/20 02:49:19;;;;;;;10.60;4.00;;;7.00;99.90;;;;;;4994889;28;20475;-71
2023/02/20 02:51:49;;;;;;;6.67;5.20;;;7.00;99.90;;;;;;4998447;28;20591;-71
2023/02/20 02:54:18;;;;;;;7.53;4.50;;;7.00;99.90;;;;;;4999314;28;20446;-71
2023/02/20 02:56:47;;;;;;;10.47;4.53;;;6.90;99.90;;;;;;5001394;28;20488;-70
2023/02/20 02:59:17;;;;;;;5.77;5.20;;;6.90;99.90;;;;;;5016645;28;20455;-69
2023/02/20 03:01:51;;;;;;;8.43;4.30;;;7.00;99.90;;;;;;5002871;28;20888;-71
2023/02/20 03:04:29;;;;;;;3.57;2.27;;;7.00;99.90;;;;;;4999230;28;20993;-71
2023/02/20 03:07:02;;;;;;;7.00;4.60;;;7.00;99.90;;;;;;5002464;28;20469;-71
2023/02/20 03:09:32;;;;;;;9.37;4.60;;;7.00;99.90;;;;;;5003660;28;20455;-71
2023/02/20 03:12:01;;;;;;;7.93;4.87;;;6.90;99.90;;;;;;4994241;28;20465;-71
2023/02/20 03:17:26;;;;;;;12.13;4.47;;;7.00;99.90;;;;;;4997257;28;20854;-70
2023/02/20 03:19:55;;;;;;;7.40;4.40;;;7.00;99.90;;;;;;5000327;28;20452;-71
2023/02/20 03:22:28;;;;;;;8.23;4.47;;;7.00;99.90;;;;;;5000111;28;20468;-71
2023/02/20 03:24:58;;;;;;;4.87;2.90;;;7.00;99.90;;;;;;4997589;28;20513;-71
2023/02/20 03:27:30;;;;;;;9.40;4.80;;;7.00;99.90;;;;;;5002828;28;20864;-71
2023/02/20 03:29:59;;;;;;;6.73;4.40;;;7.00;99.90;;;;;;4998236;28;20519;-71
2023/02/20 03:43:36;;;;;;;9.53;3.10;;;7.00;99.90;;;;;;5006310;28;20403;-71
2023/02/20 03:46:06;;;;;;;8.63;4.43;;;7.00;99.90;;;;;;5007523;28;20527;-70
2023/02/20 03:48:40;;;;;;;6.23;3.50;;;7.00;99.90;;;;;;5006880;28;20440;-70
2023/02/20 03:51:13;;;;;;;6.93;5.30;;;7.00;99.90;;;;;;5002417;28;20518;-71
2023/02/20 03:53:43;;;;;;;7.60;3.37;;;7.00;99.90;;;;;;4994575;28;20456;-71
2023/02/20 03:56:13;;;;;;;6.23;3.97;;;7.00;99.90;;;;;;4997181;28;20452;-71
2023/02/20 03:58:48;;;;;;;12.60;4.17;;;7.00;99.90;;;;;;5000338;28;20461;-69
2023/02/20 04:01:18;;;;;;;3.87;2.07;;;7.00;99.90;;;;;;4999520;28;20476;-70
2023/02/20 04:03:49;;;;;;;7.30;4.30;;;7.00;99.90;;;;;;4998580;28;20457;-70
2023/02/20 04:06:18;;;;;;;13.70;5.27;;;7.00;99.90;;;;;;4993683;28;20452;-71
2023/02/20 04:08:52;;;;;;;10.80;3.73;;;7.00;99.90;;;;;;5001282;28;20464;-69
2023/02/20 04:11:24;;;;;;;5.47;4.47;;;6.90;99.90;;;;;;5000755;28;20509;-71
2023/02/20 04:13:54;;;;;;;7.63;2.20;;;6.90;99.90;;;;;;5005572;28;21084;-71
2023/02/20 04:16:22;;;;;;;9.27;5.03;;;6.90;99.90;;;;;;5004150;28;20481;-71
2023/02/20 04:18:49;;;;;;;9.10;5.03;;;6.90;99.90;;;;;;5003563;28;20527;-71
2023/02/20 04:21:21;;;;;;;10.67;4.27;;;7.00;99.90;;;;;;5000415;28;20466;-71
2023/02/20 04:23:57;;;;;;;7.80;3.57;;;7.00;99.90;;;;;;4997854;28;20590;-70
2023/02/20 04:26:24;;;;;;;7.97;4.23;;;7.00;99.90;;;;;;5001093;28;20467;-70
2023/02/20 04:28:52;;;;;;;5.00;4.50;;;6.90;99.90;;;;;;4995092;28;20444;-69
2023/02/20 04:31:20;;;;;;;8.10;4.00;;;7.00;99.90;;;;;;5006227;28;20461;-73
2023/02/20 04:33:47;;;;;;;16.47;4.93;;;6.90;99.90;;;;;;5001595;28;20451;-70
2023/02/20 04:36:14;;;;;;;4.07;2.83;;;6.90;99.90;;;;;;5001917;28;20783;-71
2023/02/20 04:38:41;;;;;;;11.47;5.23;;;6.90;99.90;;;;;;4997628;28;20468;-70
2023/02/20 04:41:09;;;;;;;19.10;3.67;;;7.00;99.90;;;;;;4999297;28;20549;-70
2023/02/20 04:43:36;;;;;;;11.80;4.23;;;7.00;99.90;;;;;;5000712;28;20459;-73
2023/02/20 04:46:03;;;;;;;2.97;2.13;;;7.00;99.90;;;;;;5002207;28;20484;-70
2023/02/20 04:48:30;;;;;;;4.40;3.27;;;6.90;99.90;;;;;;5004614;28;20514;-69
2023/02/20 04:50:57;;;;;;;5.20;3.50;;;6.80;99.90;;;;;;5005740;28;20503;-73
2023/02/20 04:53:24;;;;;;;15.77;4.80;;;6.90;99.90;;;;;;5004349;28;20451;-70
2023/02/20 04:55:51;;;;;;;6.47;4.67;;;6.90;99.90;;;;;;5005525;28;20524;-70
2023/02/20 04:58:19;;;;;;;12.37;4.63;;;6.90;99.90;;;;;;5011036;28;20463;-72
2023/02/20 05:00:46;;;;;;;6.67;3.60;;;6.80;99.90;;;;;;5006545;28;20416;-72
2023/02/20 05:03:13;;;;;;;6.50;4.50;;;6.90;99.90;;;;;;5001653;28;20432;-72
2023/02/20 05:05:39;;;;;;;12.23;5.90;;;6.90;99.90;;;;;;4997408;28;20456;-72
2023/02/20 05:08:07;;;;;;;1.97;1.67;;;6.90;99.90;;;;;;4994256;28;21124;-72
2023/02/20 05:10:35;;;;;;;6.90;4.10;;;6.90;99.90;;;;;;4996942;28;20566;-72
2023/02/20 05:13:03;;;;;;;13.27;3.40;;;6.90;99.90;;;;;;4995080;28;20813;-69
2023/02/20 05:15:32;;;;;;;9.40;3.60;;;6.90;99.90;;;;;;5005627;28;20420;-71
2023/02/20 05:17:58;;;;;;;11.37;4.47;;;6.90;99.90;;;;;;4992415;28;21054;-71
2023/02/20 05:22:17;;;;;;;4.33;3.10;;;6.90;99.90;;;;;;4999057;28;20466;-71
2023/02/20 05:23:12;;;;;;;3.20;2.90;;;6.90;99.90;;;;;;4996395;28;20480;-71
2023/02/20 05:25:39;;;;;;;9.40;4.70;;;6.80;99.90;;;;;;5002258;28;20471;-69
2023/02/20 05:28:05;;;;;;;5.37;2.93;;;6.80;99.90;;;;;;5018240;28;20492;-69
2023/02/20 05:30:36;;;;;;;12.67;4.67;;;6.80;99.90;;;;;;5003321;28;20474;-70
2023/02/20 05:33:03;;;;;;;4.37;2.40;;;6.80;99.90;;;;;;4999359;28;20493;-71
2023/02/20 05:35:34;;;;;;;2.50;1.93;;;6.80;99.90;;;;;;5001326;28;20474;-70
2023/02/20 05:38:01;;;;;;;4.00;3.43;;;6.80;99.90;;;;;;4998315;28;20539;-71
2023/02/20 05:40:28;;;;;;;6.30;2.77;;;6.80;99.90;;;;;;4995695;28;20461;-70
2023/02/20 05:42:55;;;;;;;6.23;2.53;;;6.80;99.90;;;;;;5002613;28;20440;-71
2023/02/20 05:45:23;;;;;;;9.77;4.23;;;6.80;99.90;;;;;;5002059;28;20586;-70
2023/02/20 05:47:52;;;;;;;4.43;2.60;;;6.80;99.90;;;;;;4997855;28;20448;-70
2023/02/20 05:50:22;;;;;;;3.90;2.27;;;6.80;99.90;;;;;;5004272;28;20442;-70
2023/02/20 05:52:49;;;;;;;7.43;3.57;;;6.80;99.90;;;;;;4994952;28;20541;-72
2023/02/20 05:55:16;;;;;;;11.40;6.40;;;6.90;99.90;;;;;;4999216;28;20509;-71
2023/02/20 05:57:43;;;;;;;8.07;4.33;;;6.80;99.90;;;;;;5002718;28;20470;-71
2023/02/20 06:00:12;;;;;;;7.00;3.57;;;6.80;99.90;;;;;;4994912;28;21016;-70
2023/02/20 06:02:39;;;;;;;5.90;4.33;;;6.90;99.90;;;;;;4999695;28;20493;-70
2023/02/20 06:05:08;;;;;;;2.80;2.10;;;6.80;99.90;;;;;;4999957;28;20488;-71
2023/02/20 06:07:35;;;;;;;9.33;6.77;;;6.80;99.90;;;;;;4993063;28;20478;-70
2023/02/20 06:10:02;;;;;;;3.27;2.13;;;6.80;99.90;;;;;;4996482;28;20536;-69
2023/02/20 06:12:29;;;;;;;4.40;3.60;;;6.70;99.90;;;;;;5006459;28;20490;-71
2023/02/20 06:14:56;;;;;;;8.27;4.43;;;6.80;99.90;;;;;;4997669;28;20443;-71
2023/02/20 06:17:23;;;;;;;9.80;5.60;;;6.70;99.90;;;;;;5002876;28;20543;-70
2023/02/20 06:19:50;;;;;;;5.87;5.17;;;6.80;99.90;;;;;;5001752;28;20549;-71
2023/02/20 06:22:18;;;;;;;7.93;3.43;;;6.80;99.90;;;;;;4997661;28;20501;-71
2023/02/20 06:24:46;;;;;;;6.83;4.90;;;6.80;99.90;;;;;;4991090;28;20807;-71
2023/02/20 06:27:13;;;;;;;8.70;4.80;;;6.90;99.90;;;;;;4995772;28;20481;-70
2023/02/20 06:29:40;;;;;;;6.50;4.10;;;6.80;99.90;;;;;;4994567;28;20700;-71
2023/02/20 06:32:07;;;;;;;6.53;4.83;;;6.80;99.90;;;;;;4999508;28;20465;-71
2023/02/20 06:34:34;;;;;;;5.03;3.47;;;6.80;99.90;;;;;;4983082;28;20432;-70
2023/02/20 06:37:02;;;;;;;23.60;7.10;;;6.90;99.90;;;;;;4992708;28;20838;-71
2023/02/20 06:39:31;;;;;;;8.37;4.53;;;6.90;99.90;;;;;;4998674;28;20889;-71
2023/02/20 06:41:58;;;;;;;11.37;7.90;;;6.90;99.90;;;;;;5002791;28;20553;-70
2023/02/20 06:44:25;;;;;;;10.70;5.87;;;6.90;99.90;;;;;;4995812;28;20837;-70
2023/02/20 06:46:52;;;;;;;16.73;7.13;;;6.90;99.90;;;;;;4997418;28;21215;-70
2023/02/20 06:49:19;;;;;;;18.10;9.90;;;6.90;99.90;;;;;;4999584;28;20438;-70
2023/02/20 06:51:45;;;;;;;9.80;6.20;;;6.80;99.90;;;;;;4997843;28;20441;-70
2023/02/20 06:54:13;;;;;;;12.30;6.80;;;6.90;99.90;;;;;;4994365;28;20524;-71
2023/02/20 06:56:43;;;;;;;15.43;9.60;;;6.90;99.90;;;;;;5003103;28;20862;-71
2023/02/20 06:59:10;;;;;;;8.50;5.07;;;6.90;99.90;;;;;;5006074;28;20482;-71
2023/02/20 07:01:41;;;;;;;14.83;6.97;;;6.80;99.90;;;;;;5001237;28;20917;-71
2023/02/20 07:04:14;;;;;;;5.47;3.73;;;6.70;99.90;;;;;;5010476;28;20441;-71
2023/02/20 07:06:42;;;;;;;12.47;7.13;;;6.80;99.90;;;;;;5005016;28;20470;-70
2023/02/20 07:09:08;;;;;;;8.07;4.87;;;6.80;99.90;;;;;;5006047;28;20588;-70
2023/02/20 07:11:36;;;;;;;10.00;6.13;;;6.70;99.90;;;;;;5004352;28;20469;-70
2023/02/20 07:14:05;;;;;;;17.30;8.13;;;6.80;99.90;;;;;;5002112;28;20551;-70
2023/02/20 07:16:32;;;;;;;12.80;6.77;;;6.80;99.90;;;;;;5001796;28;20473;-71
2023/02/20 07:18:59;;;;;;;13.83;8.00;;;6.80;99.90;;;;;;4997344;28;20484;-72
2023/02/20 07:21:26;;;;;;;22.57;10.03;;;6.80;99.90;;;;;;5002345;28;20810;-71
2023/02/20 07:23:53;;;;;;;9.90;5.53;;;6.80;99.90;;;;;;5003520;28;20433;-71
2023/02/20 07:26:21;;;;;;;11.57;6.67;;;6.80;99.90;;;;;;4995107;28;20469;-71
2023/02/20 07:28:51;;;;;;;8.20;5.17;;;6.80;99.90;;;;;;4998876;28;20800;-72
2023/02/20 07:31:21;;;;;;;13.30;8.53;;;6.80;99.90;;;;;;5000809;28;20892;-72
2023/02/20 07:33:48;;;;;;;23.80;7.67;;;6.70;99.90;;;;;;4996155;28;20433;-72
2023/02/20 07:36:16;;;;;;;4.17;3.80;;;6.70;99.90;;;;;;4992617;28;20488;-71
2023/02/20 07:38:43;;;;;;;13.10;6.30;;;6.70;99.90;;;;;;4990620;28;20447;-71
2023/02/20 07:41:11;;;;;;;11.33;6.40;;;6.60;99.90;;;;;;4997414;28;20437;-72
2023/02/20 07:43:38;;;;;;;10.20;5.33;;;6.70;99.90;;;;;;4992836;28;20435;-71
2023/02/20 07:46:05;;;;;;;9.43;4.20;;;6.70;99.90;;;;;;5000328;28;21021;-72
2023/02/20 07:48:34;;;;;;;7.47;6.10;;;6.80;99.90;;;;;;5009525;28;20533;-71
2023/02/20 07:51:01;;;;;;;15.00;7.07;;;6.80;99.90;;;;;;4994863;28;20491;-71
2023/02/20 07:53:28;;;;;;;13.40;4.70;;;6.90;99.90;;;;;;4969475;28;20433;-71
2023/02/20 07:55:57;;;;;;;7.37;5.53;;;6.90;99.90;;;;;;5008998;28;21248;-71
2023/02/20 07:58:27;;;;;;;11.10;4.67;;;7.00;99.90;;;;;;4995842;28;20466;-71
2023/02/20 08:00:54;;;;;;;13.57;7.40;;;7.00;99.90;;;;;;4999484;28;20925;-72
2023/02/20 08:03:21;;;;;;;9.27;5.27;;;7.10;99.90;;;;;;4995814;28;21137;-71
2023/02/20 08:05:49;;;;;;;14.10;7.67;;;7.10;99.90;;;;;;5005377;28;20464;-72
2023/02/20 08:08:16;;;;;;;11.77;6.53;;;7.10;99.90;;;;;;5001475;28;20541;-71
2023/02/20 08:10:43;;;;;;;6.87;4.90;;;7.10;99.90;;;;;;4999896;28;20479;-72
2023/02/20 08:13:11;;;;;;;11.97;5.80;;;7.20;99.90;;;;;;5000245;28;20440;-71
2023/02/20 08:15:40;;;;;;;6.30;3.83;;;7.20;99.90;;;;;;5009465;28;20965;-71
2023/02/20 08:18:07;;;;;;;4.90;4.40;;;7.20;99.90;;;;;;4996124;28;20500;-71
2023/02/20 08:20:34;;;;;;;11.50;5.80;;;7.10;99.90;;;;;;4998752;28;20544;-70
2023/02/20 08:23:04;;;;;;;15.80;6.53;;;7.20;99.90;;;;;;4998036;28;20463;-70
2023/02/20 08:25:31;;;;;;;25.97;9.77;;;7.40;99.90;;;;;;4986837;28;20490;-70
2023/02/20 08:27:58;;;;;;;15.53;8.27;;;7.40;99.90;;;;;;5001782;28;20533;-70
2023/02/20 08:30:27;;;;;;;17.83;8.97;;;7.50;99.90;;;;;;5003986;28;20555;-70
2023/02/20 08:32:55;;;;;;;9.27;6.37;;;7.50;99.90;;;;;;4995729;28;20993;-71
2023/02/20 08:35:23;;;;;;;6.40;4.57;;;7.40;99.90;;;;;;5000828;28;20463;-70
2023/02/20 08:37:50;;;;;;;8.60;5.47;;;7.50;99.90;;;;;;4993999;28;20482;-70
2023/02/20 08:40:19;;;;;;;13.67;7.40;;;7.50;99.90;;;;;;5000998;28;20530;-70
2023/02/20 08:42:49;;;;;;;8.23;4.60;;;7.50;99.90;;;;;;4998711;28;20432;-71
2023/02/20 08:45:16;;;;;;;9.00;5.63;;;7.50;99.90;;;;;;4992099;28;20465;-71
2023/02/20 08:47:43;;;;;;;16.70;6.67;;;7.60;99.90;;;;;;4996982;28;20568;-69
2023/02/20 08:50:10;;;;;;;12.73;6.33;;;7.50;99.90;;;;;;5001067;28;20884;-70
2023/02/20 08:52:37;;;;;;;13.20;6.20;;;7.40;99.90;;;;;;4991410;28;20436;-70
2023/02/20 08:55:05;;;;;;;8.23;5.30;;;7.30;99.90;;;;;;4995882;28;20804;-70
2023/02/20 08:57:33;;;;;;;9.37;4.77;;;7.40;99.90;;;;;;5005604;28;20505;-71
2023/02/20 09:00:00;;;;;;;19.77;8.10;;;7.40;99.90;;;;;;4999788;28;20466;-72
2023/02/20 09:02:29;;;;;;;22.03;8.53;;;7.50;99.90;;;;;;5004484;28;20473;-72
2023/02/20 09:04:56;;;;;;;13.77;7.03;;;7.60;99.90;;;;;;5002884;28;20424;-72
2023/02/20 09:07:24;;;;;;;10.87;5.77;;;7.60;99.90;;;;;;5003077;28;21016;-71
2023/02/20 09:09:51;;;;;;;10.70;6.03;;;7.70;99.90;;;;;;5001151;28;20484;-72
2023/02/20 09:12:18;;;;;;;8.83;6.47;;;7.60;99.90;;;;;;4994860;28;20469;-72
2023/02/20 09:14:48;;;;;;;7.57;4.87;;;7.60;99.90;;;;;;4999217;28;20433;-71
2023/02/20 09:17:17;;;;;;;8.63;5.70;;;7.60;99.90;;;;;;4994385;28;20855;-71
2023/02/20 09:19:44;;;;;;;15.80;8.83;;;7.70;99.90;;;;;;4994922;28;21045;-71
2023/02/20 09:22:10;;;;;;;10.97;6.37;;;7.70;99.90;;;;;;4998025;28;20472;-71
2023/02/20 09:24:37;;;;;;;11.67;8.87;;;7.70;99.90;;;;;;4998082;28;20512;-71
2023/02/20 09:27:06;;;;;;;13.17;7.67;;;7.60;99.90;;;;;;4989904;28;20789;-71
2023/02/20 09:29:32;;;;;;;21.17;8.40;;;7.60;99.90;;;;;;4966000;28;20450;-71
2023/02/20 09:32:01;;;;;;;13.40;7.67;;;7.50;99.90;;;;;;4996502;28;20950;-72
2023/02/20 09:34:28;;;;;;;19.73;8.67;;;7.70;99.90;;;;;;4998858;28;20572;-71
2023/02/20 09:36:55;;;;;;;11.80;5.13;;;7.70;99.90;;;;;;4998625;28;20848;-71
2023/02/20 09:39:22;;;;;;;21.00;9.57;;;7.60;99.90;;;;;;5004973;28;20803;-72
2023/02/20 09:42:09;;;;;;;16.40;8.83;;;7.60;99.90;;;;;;4999748;28;20461;-72
2023/02/20 09:44:44;;;;;;;13.13;7.93;;;7.70;99.90;;;;;;4991586;28;20940;-72
2023/02/20 09:47:30;;;;;;;14.87;7.57;;;7.60;99.90;;;;;;4994765;28;20592;-70
2023/02/20 09:50:01;;;;;;;8.77;6.77;;;7.60;99.90;;;;;;5001119;28;20472;-71
2023/02/20 09:52:30;;;;;;;18.63;8.67;;;7.70;99.90;;;;;;5003385;28;20458;-71
2023/02/20 09:55:03;;;;;;;10.73;5.93;;;7.70;99.90;;;;;;5003104;28;20467;-71
2023/02/20 09:57:31;;;;;;;10.97;5.23;;;7.80;99.90;;;;;;4999831;28;20481;-72
2023/02/20 10:00:04;;;;;;;9.97;6.57;;;7.80;99.90;;;;;;4999670;28;20461;-71
2023/02/20 10:02:37;;;;;;;7.43;6.73;;;7.90;99.90;;;;;;5001699;28;20980;-71
2023/02/20 10:05:13;;;;;;;9.77;4.27;;;8.00;99.90;;;;;;5000816;28;20941;-72
2023/02/20 10:07:43;;;;;;;12.43;5.37;;;8.00;99.90;;;;;;4997500;28;20599;-72
2023/02/20 10:10:21;;;;;;;8.47;5.03;;;8.10;99.90;;;;;;4996350;28;20517;-71
2023/02/20 10:12:57;;;;;;;17.23;8.20;;;8.10;99.90;;;;;;5002402;28;20456;-71
2023/02/20 10:15:33;;;;;;;22.17;7.97;;;8.20;99.90;;;;;;4993001;28;20957;-72
2023/02/20 10:18:16;;;;;;;21.00;9.40;;;8.10;99.90;;;;;;4999355;28;20479;-72
2023/02/20 10:20:54;;;;;;;11.83;6.43;;;8.10;99.90;;;;;;5017203;28;20413;-71
2023/02/20 10:23:32;;;;;;;11.77;6.07;;;8.10;99.90;;;;;;5004437;28;20663;-72
2023/02/20 10:26:03;;;;;;;11.33;5.90;;;8.10;99.90;;;;;;4993267;28;20538;-72
2023/02/20 10:28:30;;;;;;;11.63;7.00;;;8.10;99.90;;;;;;5004467;28;20432;-71
2023/02/20 10:31:01;;;;;;;12.00;6.50;;;8.10;99.90;;;;;;4995244;28;20546;-71
2023/02/20 10:33:33;;;;;;;15.90;9.63;;;8.20;99.90;;;;;;4996146;28;20527;-71
2023/02/20 10:36:08;;;;;;;14.23;7.33;;;8.20;99.90;;;;;;5000662;28;21298;-72
2023/02/20 10:38:41;;;;;;;10.40;7.47;;;8.20;99.90;;;;;;5000871;28;20502;-71
2023/02/20 10:41:16;;;;;;;33.97;7.87;;;8.30;99.90;;;;;;4997491;28;20444;-72
2023/02/20 10:43:48;;;;;;;10.30;6.97;;;8.40;99.90;;;;;;5000115;28;20641;-71
2023/02/20 10:46:22;;;;;;;9.90;7.17;;;8.50;99.90;;;;;;4996021;28;20479;-71
2023/02/20 10:48:52;;;;;;;12.30;5.77;;;8.50;99.90;;;;;;4986582;28;20465;-72
2023/02/20 10:51:25;;;;;;;12.77;6.67;;;8.60;99.90;;;;;;4992607;28;20484;-71
2023/02/20 10:53:59;;;;;;;19.00;9.80;;;8.50;99.90;;;;;;5001565;28;20450;-70
2023/02/20 10:56:31;;;;;;;17.90;8.30;;;8.60;99.90;;;;;;4996823;28;21025;-70
2023/02/20 10:59:07;;;;;;;17.97;7.60;;;8.60;99.90;;;;;;4990256;28;20448;-70
2023/02/20 11:01:37;;;;;;;4.83;4.40;;;8.50;99.90;;;;;;5003203;28;20443;-70
2023/02/20 11:04:10;;;;;;;14.00;6.17;;;8.60;99.90;;;;;;4998481;28;20497;-71
2023/02/20 11:06:40;;;;;;;15.53;6.60;;;8.50;99.90;;;;;;4998752;28;20485;-73
2023/02/20 11:09:09;;;;;;;9.07;6.30;;;8.40;99.90;;;;;;4995285;28;20512;-70
2023/02/20 11:11:38;;;;;;;10.87;6.97;;;8.50;99.90;;;;;;4993966;28;20564;-71
2023/02/20 11:14:12;;;;;;;7.20;4.93;;;8.60;99.90;;;;;;5000267;28;20457;-70
2023/02/20 11:16:45;;;;;;;16.47;7.57;;;8.70;99.90;;;;;;4993417;28;20478;-71
2023/02/20 11:19:20;;;;;;;11.83;6.87;;;8.70;99.90;;;;;;4996684;28;20551;-71
2023/02/20 11:21:49;;;;;;;11.57;5.67;;;8.60;99.90;;;;;;4995133;28;20552;-71
2023/02/20 11:24:25;;;;;;;8.50;5.33;;;8.60;99.90;;;;;;4996276;28;20512;-70
2023/02/20 11:26:58;;;;;;;6.43;3.70;;;8.60;99.90;;;;;;5001064;28;21206;-70
2023/02/20 11:29:27;;;;;;;11.30;5.30;;;8.50;99.90;;;;;;4997253;28;20437;-71
2023/02/20 11:31:54;;;;;;;13.87;6.70;;;8.60;99.90;;;;;;4988688;28;20532;-70
2023/02/20 11:34:25;;;;;;;7.37;4.47;;;8.60;99.90;;;;;;4995194;28;20448;-70
2023/02/20 11:36:54;;;;;;;14.10;6.63;;;8.60;99.90;;;;;;4989155;28;20640;-70
2023/02/20 11:39:24;;;;;;;6.87;4.97;;;8.60;99.90;;;;;;5000445;28;20502;-71
2023/02/20 11:42:04;;;;;;;14.77;7.63;;;8.80;99.90;;;;;;4999084;28;20482;-71
2023/02/20 11:44:32;;;;;;;16.60;6.80;;;8.80;99.90;;;;;;5006292;28;20544;-71
2023/02/20 11:47:22;;;;;;;16.07;9.70;;;8.80;99.90;;;;;;4993549;28;20879;-70
2023/02/20 11:50:09;;;;;;;10.80;7.40;;;8.70;99.90;;;;;;4995761;28;20466;-70
2023/02/20 11:52:36;;;;;;;6.93;3.93;;;8.60;99.90;;;;;;4996939;28;20476;-73
2023/02/20 11:55:11;;;;;;;16.10;7.07;;;8.60;99.90;;;;;;5006994;28;20449;-71
2023/02/20 11:57:43;;;;;;;15.47;6.77;;;8.60;99.90;;;;;;5002356;28;20827;-72
2023/02/20 12:00:16;;;;;;;7.13;4.90;;;8.60;99.90;;;;;;4998544;28;20548;-70
2023/02/20 12:02:52;;;;;;;16.20;7.90;;;8.70;99.90;;;;;;4999191;28;20819;-70
2023/02/20 12:05:23;;;;;;;17.60;9.77;;;8.70;99.90;;;;;;5000475;28;20463;-71
2023/02/20 12:07:58;;;;;;;9.57;4.97;;;8.70;99.90;;;;;;5001015;28;20485;-71
2023/02/20 12:10:40;;;;;;;14.20;7.17;;;8.70;99.90;;;;;;5000257;28;20944;-70
2023/02/20 12:13:11;;;;;;;17.07;10.23;;;8.60;99.90;;;;;;4998888;28;20902;-71
2023/02/20 12:15:38;;;;;;;10.20;7.23;;;8.50;99.90;;;;;;4996644;28;20457;-71
2023/02/20 12:18:26;;;;;;;23.10;14.17;;;8.50;99.90;;;;;;4954546;28;20508;-69
2023/02/20 12:21:03;;;;;;;18.30;11.43;;;8.60;99.90;;;;;;5001664;28;20533;-71
2023/02/20 12:23:39;;;;;;;12.20;8.97;;;8.40;99.90;;;;;;4988655;28;20461;-72
2023/02/20 12:26:22;;;;;;;15.40;8.73;;;8.40;99.90;;;;;;4993812;28;20587;-71
2023/02/20 12:29:00;;;;;;;15.47;7.87;;;8.40;99.90;;;;;;5003804;28;20804;-71
2023/02/20 12:31:39;;;;;;;14.53;7.20;;;8.50;99.90;;;;;;5006899;28;20540;-71
2023/02/20 12:34:20;;;;;;;9.83;6.50;;;8.50;99.90;;;;;;5000184;28;20477;-72
2023/02/20 12:36:54;;;;;;;18.53;9.43;;;8.50;99.90;;;;;;5000718;28;20491;-71
2023/02/20 12:39:34;;;;;;;14.17;8.33;;;8.40;99.90;;;;;;4989385;28;21284;-70
2023/02/20 12:42:17;;;;;;;14.47;5.60;;;8.50;99.90;;;;;;5008744;28;20466;-71
2023/02/20 12:45:01;;;;;;;14.33;7.13;;;8.60;99.90;;;;;;5004080;28;20523;-70
2023/02/20 12:47:32;;;;;;;13.20;8.10;;;8.60;99.90;;;;;;5011794;28;20495;-70
2023/02/20 12:50:17;;;;;;;20.03;8.50;;;8.60;99.90;;;;;;5004589;28;20541;-70
2023/02/20 12:53:01;;;;;;;11.40;5.87;;;8.70;99.90;;;;;;5001098;28;20560;-71
2023/02/20 12:55:39;;;;;;;13.43;8.40;;;8.70;99.90;;;;;;5004173;28;21004;-71
2023/02/20 12:58:20;;;;;;;7.80;4.47;;;8.80;99.90;;;;;;5005156;28;20433;-71
2023/02/20 13:00:52;;;;;;;13.03;5.90;;;8.80;99.90;;;;;;5002723;28;20533;-72
2023/02/20 13:03:23;;;;;;;10.43;5.37;;;8.80;99.90;;;;;;5002768;28;20477;-71
2023/02/20 13:05:51;;;;;;;10.50;7.53;;;8.80;99.90;;;;;;5002142;28;20457;-71
2023/02/20 13:08:27;;;;;;;10.63;8.03;;;8.70;99.90;;;;;;5001131;28;20834;-71
2023/02/20 13:10:57;;;;;;;14.50;7.63;;;8.70;99.90;;;;;;5000005;28;20540;-71
2023/02/20 13:13:28;;;;;;;14.63;7.93;;;8.70;99.90;;;;;;5001278;28;20469;-71
2023/02/20 13:16:03;;;;;;;10.00;4.73;;;8.80;99.90;;;;;;5004645;28;20512;-70
2023/02/20 13:18:40;;;;;;;13.23;7.70;;;8.90;99.90;;;;;;5000719;28;20556;-71
2023/02/20 13:21:12;;;;;;;15.57;8.40;;;8.90;99.90;;;;;;5003133;28;20540;-71
2023/02/20 13:23:40;;;;;;;16.90;9.57;;;9.00;99.90;;;;;;4997558;28;20459;-70
2023/02/20 13:26:45;;;;;;;17.20;8.50;;;9.00;99.90;;;;;;5006462;28;20496;-70